sensor_id;sensor_type;location;lat;lon;timestamp;temperature;humidity
10046;DHT22;5063;50.878;4.742;2023-11-19T00:00:16;13.70;99.90
10046;DHT22;5063;50.878;4.742;2023-11-19T00:02:42;13.70;99.90
10046;DHT22;5063;50.878;4.742;2023-11-19T00:05:09;13.70;99.90
10046;DHT22;5063;50.878;4.742;2023-11-19T00:07:35;13.70;99.90
10046;DHT22;5063;50.878;4.742;2023-11-19T00:10:02;13.70;99.90
10046;DHT22;5063;50.878;4.742;2023-11-19T00:12:32;13.70;99.90
10046;DHT22;5063;50.878;4.742;2023-11-19T00:14:58;13.70;99.90
10046;DHT22;5063;50.878;4.742;2023-11-19T00:17:23;13.80;99.90
10046;DHT22;5063;50.878;4.742;2023-11-19T00:19:49;13.70;99.90
10046;DHT22;5063;50.878;4.742;2023-11-19T00:22:17;13.70;99.90
10046;DHT22;5063;50.878;4.742;2023-11-19T00:24:42;13.80;99.90
10046;DHT22;5063;50.878;4.742;2023-11-19T00:27:08;13.70;99.90
10046;DHT22;5063;50.878;4.742;2023-11-19T00:29:34;13.70;99.90
10046;DHT22;5063;50.878;4.742;2023-11-19T00:31:59;13.70;99.90
10046;DHT22;5063;50.878;4.742;2023-11-19T00:34:25;13.70;99.90
10046;DHT22;5063;50.878;4.742;2023-11-19T00:36:51;13.70;99.90
10046;DHT22;5063;50.878;4.742;2023-11-19T00:39:17;13.70;99.90
10046;DHT22;5063;50.878;4.742;2023-11-19T00:41:43;13.80;99.90
10046;DHT22;5063;50.878;4.742;2023-11-19T00:44:09;13.70;99.90
10046;DHT22;5063;50.878;4.742;2023-11-19T00:46:34;13.80;99.90
10046;DHT22;5063;50.878;4.742;2023-11-19T00:49:00;13.70;99.90
10046;DHT22;5063;50.878;4.742;2023-11-19T00:51:26;13.70;99.90
10046;DHT22;5063;50.878;4.742;2023-11-19T00:53:52;13.80;99.90
10046;DHT22;5063;50.878;4.742;2023-11-19T00:56:18;13.80;99.90
10046;DHT22;5063;50.878;4.742;2023-11-19T00:58:45;13.80;99.90
10046;DHT22;5063;50.878;4.742;2023-11-19T01:01:13;13.80;99.90
10046;DHT22;5063;50.878;4.742;2023-11-19T01:03:39;13.70;99.90
10046;DHT22;5063;50.878;4.742;2023-11-19T01:06:05;13.70;99.90
10046;DHT22;5063;50.878;4.742;2023-11-19T01:08:30;13.70;99.90
10046;DHT22;5063;50.878;4.742;2023-11-19T01:10:56;13.70;99.90
10046;DHT22;5063;50.878;4.742;2023-11-19T01:13:22;13.70;99.90
10046;DHT22;5063;50.878;4.742;2023-11-19T01:15:47;13.70;99.90
10046;DHT22;5063;50.878;4.742;2023-11-19T01:18:13;13.70;99.90
10046;DHT22;5063;50.878;4.742;2023-11-19T01:20:39;13.70;99.90
10046;DHT22;5063;50.878;4.742;2023-11-19T01:23:05;13.70;99.90
10046;DHT22;5063;50.878;4.742;2023-11-19T01:25:31;13.70;99.90
10046;DHT22;5063;50.878;4.742;2023-11-19T01:27:56;13.70;99.90
10046;DHT22;5063;50.878;4.742;2023-11-19T01:30:25;13.70;99.90
10046;DHT22;5063;50.878;4.742;2023-11-19T01:32:51;13.70;99.90
10046;DHT22;5063;50.878;4.742;2023-11-19T01:35:16;13.70;99.90
10046;DHT22;5063;50.878;4.742;2023-11-19T01:37:42;13.70;99.90
10046;DHT22;5063;50.878;4.742;2023-11-19T01:40:08;13.70;99.90
10046;DHT22;5063;50.878;4.742;2023-11-19T01:42:40;13.70;99.90
10046;DHT22;5063;50.878;4.742;2023-11-19T01:45:07;13.70;99.90
10046;DHT22;5063;50.878;4.742;2023-11-19T01:47:34;13.80;99.90
10046;DHT22;5063;50.878;4.742;2023-11-19T01:50:01;13.80;99.90
10046;DHT22;5063;50.878;4.742;2023-11-19T01:52:34;13.80;99.90
10046;DHT22;5063;50.878;4.742;2023-11-19T01:55:02;13.80;99.90
10046;DHT22;5063;50.878;4.742;2023-11-19T01:57:28;13.70;99.90
10046;DHT22;5063;50.878;4.742;2023-11-19T01:59:54;13.70;99.90
10046;DHT22;5063;50.878;4.742;2023-11-19T02:02:20;13.70;99.90
10046;DHT22;5063;50.878;4.742;2023-11-19T02:04:50;13.70;99.90
10046;DHT22;5063;50.878;4.742;2023-11-19T02:07:16;13.70;99.90
10046;DHT22;5063;50.878;4.742;2023-11-19T02:09:45;13.70;99.90
10046;DHT22;5063;50.878;4.742;2023-11-19T02:12:11;13.60;99.90
10046;DHT22;5063;50.878;4.742;2023-11-19T02:14:37;13.60;99.90
10046;DHT22;5063;50.878;4.742;2023-11-19T02:17:04;13.60;99.90
10046;DHT22;5063;50.878;4.742;2023-11-19T02:19:30;13.50;99.90
10046;DHT22;5063;50.878;4.742;2023-11-19T02:21:55;13.50;99.90
10046;DHT22;5063;50.878;4.742;2023-11-19T02:24:26;13.40;99.90
10046;DHT22;5063;50.878;4.742;2023-11-19T02:27:08;13.30;99.90
10046;DHT22;5063;50.878;4.742;2023-11-19T02:29:36;13.20;99.90
10046;DHT22;5063;50.878;4.742;2023-11-19T02:32:02;13.10;99.90
10046;DHT22;5063;50.878;4.742;2023-11-19T02:34:28;13.00;99.90
10046;DHT22;5063;50.878;4.742;2023-11-19T02:36:54;12.90;99.90
10046;DHT22;5063;50.878;4.742;2023-11-19T02:39:20;12.90;99.90
10046;DHT22;5063;50.878;4.742;2023-11-19T02:41:47;12.90;99.90
10046;DHT22;5063;50.878;4.742;2023-11-19T02:44:16;12.80;99.90
10046;DHT22;5063;50.878;4.742;2023-11-19T02:46:42;12.80;99.90
10046;DHT22;5063;50.878;4.742;2023-11-19T02:49:08;12.80;99.90
10046;DHT22;5063;50.878;4.742;2023-11-19T02:51:35;12.80;99.90
10046;DHT22;5063;50.878;4.742;2023-11-19T02:54:01;12.90;99.90
10046;DHT22;5063;50.878;4.742;2023-11-19T02:56:29;12.90;99.90
10046;DHT22;5063;50.878;4.742;2023-11-19T02:59:00;12.80;99.90
10046;DHT22;5063;50.878;4.742;2023-11-19T03:01:33;12.70;99.90
10046;DHT22;5063;50.878;4.742;2023-11-19T03:04:01;12.70;99.90
10046;DHT22;5063;50.878;4.742;2023-11-19T03:06:27;12.70;99.90
10046;DHT22;5063;50.878;4.742;2023-11-19T03:08:55;12.70;99.90
10046;DHT22;5063;50.878;4.742;2023-11-19T03:11:21;12.80;99.90
10046;DHT22;5063;50.878;4.742;2023-11-19T03:13:47;12.90;99.90
10046;DHT22;5063;50.878;4.742;2023-11-19T03:16:13;13.00;99.90
10046;DHT22;5063;50.878;4.742;2023-11-19T03:18:39;13.10;99.90
10046;DHT22;5063;50.878;4.742;2023-11-19T03:21:08;13.10;99.90
10046;DHT22;5063;50.878;4.742;2023-11-19T03:23:34;13.00;99.90
10046;DHT22;5063;50.878;4.742;2023-11-19T03:26:00;13.00;99.90
10046;DHT22;5063;50.878;4.742;2023-11-19T03:28:29;12.90;99.90
10046;DHT22;5063;50.878;4.742;2023-11-19T03:30:55;12.90;99.90
10046;DHT22;5063;50.878;4.742;2023-11-19T03:33:20;12.80;99.90
10046;DHT22;5063;50.878;4.742;2023-11-19T03:35:46;12.80;99.90
10046;DHT22;5063;50.878;4.742;2023-11-19T03:38:12;12.80;99.90
10046;DHT22;5063;50.878;4.742;2023-11-19T03:40:38;12.80;99.90
10046;DHT22;5063;50.878;4.742;2023-11-19T03:43:04;12.80;99.90
10046;DHT22;5063;50.878;4.742;2023-11-19T03:45:30;12.70;99.90
10046;DHT22;5063;50.878;4.742;2023-11-19T03:47:56;12.70;99.90
10046;DHT22;5063;50.878;4.742;2023-11-19T03:50:22;12.60;99.90
10046;DHT22;5063;50.878;4.742;2023-11-19T03:52:48;12.50;99.90
10046;DHT22;5063;50.878;4.742;2023-11-19T03:55:13;12.40;99.90
10046;DHT22;5063;50.878;4.742;2023-11-19T03:57:39;12.40;99.90
10046;DHT22;5063;50.878;4.742;2023-11-19T04:00:05;12.40;99.90
10046;DHT22;5063;50.878;4.742;2023-11-19T04:02:35;12.30;99.90
10046;DHT22;5063;50.878;4.742;2023-11-19T04:05:01;12.30;99.90
10046;DHT22;5063;50.878;4.742;2023-11-19T04:07:27;12.20;99.90
10046;DHT22;5063;50.878;4.742;2023-11-19T04:09:53;12.20;99.90
10046;DHT22;5063;50.878;4.742;2023-11-19T04:12:18;12.20;99.90
10046;DHT22;5063;50.878;4.742;2023-11-19T04:14:44;12.10;99.90
10046;DHT22;5063;50.878;4.742;2023-11-19T04:17:10;12.10;99.90
10046;DHT22;5063;50.878;4.742;2023-11-19T04:19:35;12.10;99.90
10046;DHT22;5063;50.878;4.742;2023-11-19T04:22:01;12.10;99.90
10046;DHT22;5063;50.878;4.742;2023-11-19T04:24:27;12.00;99.90
10046;DHT22;5063;50.878;4.742;2023-11-19T04:26:53;12.10;99.90
10046;DHT22;5063;50.878;4.742;2023-11-19T04:29:19;12.20;99.90
10046;DHT22;5063;50.878;4.742;2023-11-19T04:31:45;12.30;99.90
10046;DHT22;5063;50.878;4.742;2023-11-19T04:34:11;12.40;99.90
10046;DHT22;5063;50.878;4.742;2023-11-19T04:36:37;12.50;99.90
10046;DHT22;5063;50.878;4.742;2023-11-19T04:39:03;12.60;99.90
10046;DHT22;5063;50.878;4.742;2023-11-19T04:41:50;12.50;99.90
10046;DHT22;5063;50.878;4.742;2023-11-19T04:44:18;12.50;99.90
10046;DHT22;5063;50.878;4.742;2023-11-19T04:46:44;12.50;99.90
10046;DHT22;5063;50.878;4.742;2023-11-19T04:49:11;12.50;99.90
10046;DHT22;5063;50.878;4.742;2023-11-19T04:51:41;12.40;99.90
10046;DHT22;5063;50.878;4.742;2023-11-19T04:54:08;12.30;99.90
10046;DHT22;5063;50.878;4.742;2023-11-19T04:56:34;12.30;99.90
10046;DHT22;5063;50.878;4.742;2023-11-19T04:59:02;12.30;99.90
10046;DHT22;5063;50.878;4.742;2023-11-19T05:01:28;12.20;99.90
10046;DHT22;5063;50.878;4.742;2023-11-19T05:03:53;12.20;99.90
10046;DHT22;5063;50.878;4.742;2023-11-19T05:06:19;12.10;99.90
10046;DHT22;5063;50.878;4.742;2023-11-19T05:08:46;11.90;99.90
10046;DHT22;5063;50.878;4.742;2023-11-19T05:11:11;12.10;99.90
10046;DHT22;5063;50.878;4.742;2023-11-19T05:13:39;12.10;99.90
10046;DHT22;5063;50.878;4.742;2023-11-19T05:16:05;12.10;99.90
10046;DHT22;5063;50.878;4.742;2023-11-19T05:18:31;12.10;99.90
10046;DHT22;5063;50.878;4.742;2023-11-19T05:20:56;12.10;99.90
10046;DHT22;5063;50.878;4.742;2023-11-19T05:23:22;12.10;99.90
10046;DHT22;5063;50.878;4.742;2023-11-19T05:25:48;12.10;99.90
10046;DHT22;5063;50.878;4.742;2023-11-19T05:28:13;12.10;99.90
10046;DHT22;5063;50.878;4.742;2023-11-19T05:30:40;12.10;99.90
10046;DHT22;5063;50.878;4.742;2023-11-19T05:33:06;12.00;99.90
10046;DHT22;5063;50.878;4.742;2023-11-19T05:35:34;12.00;99.90
10046;DHT22;5063;50.878;4.742;2023-11-19T05:38:00;11.90;99.90
10046;DHT22;5063;50.878;4.742;2023-11-19T05:40:26;11.90;99.90
10046;DHT22;5063;50.878;4.742;2023-11-19T05:42:51;11.80;99.90
10046;DHT22;5063;50.878;4.742;2023-11-19T05:45:17;11.80;99.90
10046;DHT22;5063;50.878;4.742;2023-11-19T05:47:43;11.80;99.90
10046;DHT22;5063;50.878;4.742;2023-11-19T05:50:09;11.70;99.90
10046;DHT22;5063;50.878;4.742;2023-11-19T05:52:35;11.70;99.90
10046;DHT22;5063;50.878;4.742;2023-11-19T05:55:01;11.70;99.90
10046;DHT22;5063;50.878;4.742;2023-11-19T05:57:35;11.70;99.90
10046;DHT22;5063;50.878;4.742;2023-11-19T06:00:00;11.70;99.90
10046;DHT22;5063;50.878;4.742;2023-11-19T06:02:26;11.80;99.90
10046;DHT22;5063;50.878;4.742;2023-11-19T06:04:53;11.80;99.90
10046;DHT22;5063;50.878;4.742;2023-11-19T06:07:19;11.80;99.90
10046;DHT22;5063;50.878;4.742;2023-11-19T06:09:45;11.80;99.90
10046;DHT22;5063;50.878;4.742;2023-11-19T06:12:11;11.80;99.90
10046;DHT22;5063;50.878;4.742;2023-11-19T06:14:37;11.80;99.90
10046;DHT22;5063;50.878;4.742;2023-11-19T06:17:03;11.80;99.90
10046;DHT22;5063;50.878;4.742;2023-11-19T06:19:30;11.70;99.90
10046;DHT22;5063;50.878;4.742;2023-11-19T06:21:56;11.70;99.90
10046;DHT22;5063;50.878;4.742;2023-11-19T06:24:21;11.60;99.90
10046;DHT22;5063;50.878;4.742;2023-11-19T06:26:47;11.60;99.90
10046;DHT22;5063;50.878;4.742;2023-11-19T06:29:13;11.60;99.90
10046;DHT22;5063;50.878;4.742;2023-11-19T06:31:44;11.60;99.90
10046;DHT22;5063;50.878;4.742;2023-11-19T06:34:10;11.50;99.90
10046;DHT22;5063;50.878;4.742;2023-11-19T06:36:35;11.50;99.90
10046;DHT22;5063;50.878;4.742;2023-11-19T06:39:01;11.50;99.90
10046;DHT22;5063;50.878;4.742;2023-11-19T06:41:27;11.50;99.90
10046;DHT22;5063;50.878;4.742;2023-11-19T06:43:54;11.50;99.90
10046;DHT22;5063;50.878;4.742;2023-11-19T06:46:20;11.50;99.90
10046;DHT22;5063;50.878;4.742;2023-11-19T06:48:46;11.50;99.90
10046;DHT22;5063;50.878;4.742;2023-11-19T06:51:12;11.40;99.90
10046;DHT22;5063;50.878;4.742;2023-11-19T06:53:38;11.40;99.90
10046;DHT22;5063;50.878;4.742;2023-11-19T06:56:06;11.40;99.90
10046;DHT22;5063;50.878;4.742;2023-11-19T06:58:36;11.30;99.90
10046;DHT22;5063;50.878;4.742;2023-11-19T07:01:02;11.30;99.90
10046;DHT22;5063;50.878;4.742;2023-11-19T07:03:27;11.30;99.90
10046;DHT22;5063;50.878;4.742;2023-11-19T07:05:53;11.30;99.90
10046;DHT22;5063;50.878;4.742;2023-11-19T07:08:21;11.20;99.90
10046;DHT22;5063;50.878;4.742;2023-11-19T07:10:46;11.20;99.90
10046;DHT22;5063;50.878;4.742;2023-11-19T07:13:13;11.30;99.90
10046;DHT22;5063;50.878;4.742;2023-11-19T07:15:38;11.40;99.90
10046;DHT22;5063;50.878;4.742;2023-11-19T07:18:04;11.40;99.90
10046;DHT22;5063;50.878;4.742;2023-11-19T07:20:30;11.40;99.90
10046;DHT22;5063;50.878;4.742;2023-11-19T07:22:56;11.40;99.90
10046;DHT22;5063;50.878;4.742;2023-11-19T07:25:22;11.40;99.90
10046;DHT22;5063;50.878;4.742;2023-11-19T07:27:48;11.50;99.90
10046;DHT22;5063;50.878;4.742;2023-11-19T07:30:14;11.50;99.90
10046;DHT22;5063;50.878;4.742;2023-11-19T07:32:40;11.40;99.90
10046;DHT22;5063;50.878;4.742;2023-11-19T07:35:06;11.50;99.90
10046;DHT22;5063;50.878;4.742;2023-11-19T07:37:32;11.50;99.90
10046;DHT22;5063;50.878;4.742;2023-11-19T07:39:58;11.60;99.90
10046;DHT22;5063;50.878;4.742;2023-11-19T07:42:24;11.50;99.90
10046;DHT22;5063;50.878;4.742;2023-11-19T07:44:49;11.60;99.90
10046;DHT22;5063;50.878;4.742;2023-11-19T07:47:15;11.60;99.90
10046;DHT22;5063;50.878;4.742;2023-11-19T07:49:41;11.70;99.90
10046;DHT22;5063;50.878;4.742;2023-11-19T07:52:09;11.70;99.90
10046;DHT22;5063;50.878;4.742;2023-11-19T07:54:35;11.70;99.90
10046;DHT22;5063;50.878;4.742;2023-11-19T07:57:00;11.80;99.90
10046;DHT22;5063;50.878;4.742;2023-11-19T07:59:26;11.80;99.90
10046;DHT22;5063;50.878;4.742;2023-11-19T08:01:52;11.80;99.90
10046;DHT22;5063;50.878;4.742;2023-11-19T08:04:18;11.90;99.90
10046;DHT22;5063;50.878;4.742;2023-11-19T08:06:43;11.90;99.90
10046;DHT22;5063;50.878;4.742;2023-11-19T08:09:10;12.00;99.90
10046;DHT22;5063;50.878;4.742;2023-11-19T08:11:40;12.00;99.90
10046;DHT22;5063;50.878;4.742;2023-11-19T08:14:06;12.10;99.90
10046;DHT22;5063;50.878;4.742;2023-11-19T08:16:31;12.20;99.90
10046;DHT22;5063;50.878;4.742;2023-11-19T08:18:57;12.30;99.90
10046;DHT22;5063;50.878;4.742;2023-11-19T08:21:23;12.40;99.90
10046;DHT22;5063;50.878;4.742;2023-11-19T08:23:49;12.40;99.90
10046;DHT22;5063;50.878;4.742;2023-11-19T08:26:15;12.40;99.90
10046;DHT22;5063;50.878;4.742;2023-11-19T08:28:41;12.40;99.90
10046;DHT22;5063;50.878;4.742;2023-11-19T08:31:07;12.40;99.90
10046;DHT22;5063;50.878;4.742;2023-11-19T08:33:33;12.40;99.90
10046;DHT22;5063;50.878;4.742;2023-11-19T08:35:58;12.40;99.90
10046;DHT22;5063;50.878;4.742;2023-11-19T08:38:24;12.40;99.90
10046;DHT22;5063;50.878;4.742;2023-11-19T08:40:51;12.40;99.90
10046;DHT22;5063;50.878;4.742;2023-11-19T08:43:17;12.40;99.90
10046;DHT22;5063;50.878;4.742;2023-11-19T08:45:43;12.50;99.90
10046;DHT22;5063;50.878;4.742;2023-11-19T08:48:09;12.50;99.90
10046;DHT22;5063;50.878;4.742;2023-11-19T08:50:34;12.50;99.90
10046;DHT22;5063;50.878;4.742;2023-11-19T08:53:00;12.50;99.90
10046;DHT22;5063;50.878;4.742;2023-11-19T08:55:26;12.60;99.90
10046;DHT22;5063;50.878;4.742;2023-11-19T08:57:51;12.60;99.90
10046;DHT22;5063;50.878;4.742;2023-11-19T09:00:17;12.70;99.90
10046;DHT22;5063;50.878;4.742;2023-11-19T09:02:43;12.80;99.90
10046;DHT22;5063;50.878;4.742;2023-11-19T09:05:09;13.00;99.90
10046;DHT22;5063;50.878;4.742;2023-11-19T09:07:35;13.00;99.90
10046;DHT22;5063;50.878;4.742;2023-11-19T09:10:01;13.10;99.90
10046;DHT22;5063;50.878;4.742;2023-11-19T09:12:27;13.10;99.90
10046;DHT22;5063;50.878;4.742;2023-11-19T09:14:53;13.10;99.90
10046;DHT22;5063;50.878;4.742;2023-11-19T09:17:18;13.00;99.90
10046;DHT22;5063;50.878;4.742;2023-11-19T09:19:44;13.00;99.90
10046;DHT22;5063;50.878;4.742;2023-11-19T09:22:10;12.90;99.90
10046;DHT22;5063;50.878;4.742;2023-11-19T09:24:35;12.80;99.90
10046;DHT22;5063;50.878;4.742;2023-11-19T09:27:01;12.90;99.90
10046;DHT22;5063;50.878;4.742;2023-11-19T09:29:27;13.10;99.90
10046;DHT22;5063;50.878;4.742;2023-11-19T09:31:53;13.20;99.90
10046;DHT22;5063;50.878;4.742;2023-11-19T09:34:18;13.30;99.90
10046;DHT22;5063;50.878;4.742;2023-11-19T09:36:44;13.40;99.90
10046;DHT22;5063;50.878;4.742;2023-11-19T09:39:11;13.30;99.90
10046;DHT22;5063;50.878;4.742;2023-11-19T09:41:38;13.30;99.90
10046;DHT22;5063;50.878;4.742;2023-11-19T09:44:04;13.30;99.90
10046;DHT22;5063;50.878;4.742;2023-11-19T09:46:30;13.30;99.90
10046;DHT22;5063;50.878;4.742;2023-11-19T09:48:57;13.30;99.90
10046;DHT22;5063;50.878;4.742;2023-11-19T09:51:25;13.30;99.90
10046;DHT22;5063;50.878;4.742;2023-11-19T09:53:51;13.40;99.90
10046;DHT22;5063;50.878;4.742;2023-11-19T09:56:17;13.50;99.90
10046;DHT22;5063;50.878;4.742;2023-11-19T09:58:43;13.50;99.90
10046;DHT22;5063;50.878;4.742;2023-11-19T10:01:09;13.60;99.90
10046;DHT22;5063;50.878;4.742;2023-11-19T10:03:38;13.70;99.90
10046;DHT22;5063;50.878;4.742;2023-11-19T10:06:08;13.60;99.90
10046;DHT22;5063;50.878;4.742;2023-11-19T10:08:38;13.50;99.90
10046;DHT22;5063;50.878;4.742;2023-11-19T10:11:07;13.60;99.90
10046;DHT22;5063;50.878;4.742;2023-11-19T10:13:35;13.80;99.90
10046;DHT22;5063;50.878;4.742;2023-11-19T10:16:08;14.10;99.90
10046;DHT22;5063;50.878;4.742;2023-11-19T10:18:34;14.50;99.90
10046;DHT22;5063;50.878;4.742;2023-11-19T10:21:04;14.60;99.90
10046;DHT22;5063;50.878;4.742;2023-11-19T10:23:31;14.60;99.90
10046;DHT22;5063;50.878;4.742;2023-11-19T10:26:03;14.40;99.90
10046;DHT22;5063;50.878;4.742;2023-11-19T10:28:39;14.20;99.90
10046;DHT22;5063;50.878;4.742;2023-11-19T10:31:06;14.00;99.90
10046;DHT22;5063;50.878;4.742;2023-11-19T10:33:31;13.90;99.90
10046;DHT22;5063;50.878;4.742;2023-11-19T10:35:57;14.00;99.90
10046;DHT22;5063;50.878;4.742;2023-11-19T10:38:24;14.00;99.90
10046;DHT22;5063;50.878;4.742;2023-11-19T10:40:51;14.10;99.90
10046;DHT22;5063;50.878;4.742;2023-11-19T10:43:21;14.20;99.90
10046;DHT22;5063;50.878;4.742;2023-11-19T10:45:48;14.40;99.90
10046;DHT22;5063;50.878;4.742;2023-11-19T10:48:14;14.60;99.90
10046;DHT22;5063;50.878;4.742;2023-11-19T10:50:42;14.70;99.90
10046;DHT22;5063;50.878;4.742;2023-11-19T10:53:10;14.80;99.90
10046;DHT22;5063;50.878;4.742;2023-11-19T10:55:37;14.90;99.90
10046;DHT22;5063;50.878;4.742;2023-11-19T10:58:07;15.10;99.90
10046;DHT22;5063;50.878;4.742;2023-11-19T11:00:48;15.10;99.90
10046;DHT22;5063;50.878;4.742;2023-11-19T11:03:21;15.00;99.90
10046;DHT22;5063;50.878;4.742;2023-11-19T11:05:51;14.80;99.90
10046;DHT22;5063;50.878;4.742;2023-11-19T11:08:18;14.70;99.90
10046;DHT22;5063;50.878;4.742;2023-11-19T11:10:55;14.60;99.90
10046;DHT22;5063;50.878;4.742;2023-11-19T11:13:22;14.40;99.90
10046;DHT22;5063;50.878;4.742;2023-11-19T11:15:52;14.20;99.90
10046;DHT22;5063;50.878;4.742;2023-11-19T11:18:20;14.10;99.90
10046;DHT22;5063;50.878;4.742;2023-11-19T11:20:46;14.30;99.90
10046;DHT22;5063;50.878;4.742;2023-11-19T11:23:38;14.40;99.90
10046;DHT22;5063;50.878;4.742;2023-11-19T11:37:49;14.70;99.90
10046;DHT22;5063;50.878;4.742;2023-11-19T11:40:16;14.80;99.90
10046;DHT22;5063;50.878;4.742;2023-11-19T11:42:44;14.70;99.90
10046;DHT22;5063;50.878;4.742;2023-11-19T11:45:11;14.80;99.90
10046;DHT22;5063;50.878;4.742;2023-11-19T11:50:15;14.60;99.90
10046;DHT22;5063;50.878;4.742;2023-11-19T11:55:57;14.50;99.90
10046;DHT22;5063;50.878;4.742;2023-11-19T11:58:30;14.30;99.90
10046;DHT22;5063;50.878;4.742;2023-11-19T12:01:01;14.20;99.90
10046;DHT22;5063;50.878;4.742;2023-11-19T12:03:28;14.20;99.90
10046;DHT22;5063;50.878;4.742;2023-11-19T12:05:55;14.20;99.90
10046;DHT22;5063;50.878;4.742;2023-11-19T12:08:28;14.30;99.90
10046;DHT22;5063;50.878;4.742;2023-11-19T12:10:56;14.30;99.90
10046;DHT22;5063;50.878;4.742;2023-11-19T12:13:42;14.30;99.90
10046;DHT22;5063;50.878;4.742;2023-11-19T12:16:09;14.60;99.90
10046;DHT22;5063;50.878;4.742;2023-11-19T12:18:35;14.70;99.90
10046;DHT22;5063;50.878;4.742;2023-11-19T12:21:01;14.80;99.90
10046;DHT22;5063;50.878;4.742;2023-11-19T12:23:30;15.10;99.90
10046;DHT22;5063;50.878;4.742;2023-11-19T12:25:59;15.20;99.90
10046;DHT22;5063;50.878;4.742;2023-11-19T12:28:25;15.40;99.90
10046;DHT22;5063;50.878;4.742;2023-11-19T12:30:54;15.40;99.90
10046;DHT22;5063;50.878;4.742;2023-11-19T12:33:32;15.40;99.90
10046;DHT22;5063;50.878;4.742;2023-11-19T12:35:58;15.30;99.90
10046;DHT22;5063;50.878;4.742;2023-11-19T12:38:25;15.10;99.90
10046;DHT22;5063;50.878;4.742;2023-11-19T12:41:06;14.90;99.90
10046;DHT22;5063;50.878;4.742;2023-11-19T12:43:33;14.80;99.90
10046;DHT22;5063;50.878;4.742;2023-11-19T12:46:02;14.40;99.90
10046;DHT22;5063;50.878;4.742;2023-11-19T12:48:28;14.30;99.90
10046;DHT22;5063;50.878;4.742;2023-11-19T12:50:56;14.20;99.90
10046;DHT22;5063;50.878;4.742;2023-11-19T12:53:24;14.30;99.90
10046;DHT22;5063;50.878;4.742;2023-11-19T12:55:51;14.30;99.90
10046;DHT22;5063;50.878;4.742;2023-11-19T12:58:33;14.20;99.90
10046;DHT22;5063;50.878;4.742;2023-11-19T13:01:03;14.10;99.90
10046;DHT22;5063;50.878;4.742;2023-11-19T13:03:35;14.10;99.90
10046;DHT22;5063;50.878;4.742;2023-11-19T13:06:05;14.10;99.90
10046;DHT22;5063;50.878;4.742;2023-11-19T13:08:51;14.00;99.90
10046;DHT22;5063;50.878;4.742;2023-11-19T13:11:33;14.00;99.90
10046;DHT22;5063;50.878;4.742;2023-11-19T13:14:00;14.00;99.90
10046;DHT22;5063;50.878;4.742;2023-11-19T13:16:27;14.00;99.90
10046;DHT22;5063;50.878;4.742;2023-11-19T13:18:53;14.00;99.90
10046;DHT22;5063;50.878;4.742;2023-11-19T13:21:19;14.00;99.90
10046;DHT22;5063;50.878;4.742;2023-11-19T13:23:45;14.10;99.90
10046;DHT22;5063;50.878;4.742;2023-11-19T13:26:11;14.30;99.90
10046;DHT22;5063;50.878;4.742;2023-11-19T13:28:37;14.40;99.90
10046;DHT22;5063;50.878;4.742;2023-11-19T13:31:04;14.50;99.90
10046;DHT22;5063;50.878;4.742;2023-11-19T13:33:29;14.60;99.90
10046;DHT22;5063;50.878;4.742;2023-11-19T13:35:56;14.50;99.90
10046;DHT22;5063;50.878;4.742;2023-11-19T13:38:22;14.30;99.90
10046;DHT22;5063;50.878;4.742;2023-11-19T13:40:50;14.20;99.90
10046;DHT22;5063;50.878;4.742;2023-11-19T13:43:16;14.10;99.90
10046;DHT22;5063;50.878;4.742;2023-11-19T13:45:42;14.20;99.90
10046;DHT22;5063;50.878;4.742;2023-11-19T13:48:08;14.20;99.90
10046;DHT22;5063;50.878;4.742;2023-11-19T13:50:34;14.20;99.90
10046;DHT22;5063;50.878;4.742;2023-11-19T13:53:00;14.20;99.90
10046;DHT22;5063;50.878;4.742;2023-11-19T13:55:26;14.00;99.90
10046;DHT22;5063;50.878;4.742;2023-11-19T13:57:52;14.00;99.90
10046;DHT22;5063;50.878;4.742;2023-11-19T14:00:18;13.90;99.90
10046;DHT22;5063;50.878;4.742;2023-11-19T14:02:46;13.70;99.90
10046;DHT22;5063;50.878;4.742;2023-11-19T14:05:13;13.70;99.90
10046;DHT22;5063;50.878;4.742;2023-11-19T14:07:40;13.40;99.90
10046;DHT22;5063;50.878;4.742;2023-11-19T14:10:07;13.30;99.90
10046;DHT22;5063;50.878;4.742;2023-11-19T14:12:35;13.20;99.90
10046;DHT22;5063;50.878;4.742;2023-11-19T14:15:04;13.20;99.90
10046;DHT22;5063;50.878;4.742;2023-11-19T14:17:38;13.20;99.90
10046;DHT22;5063;50.878;4.742;2023-11-19T14:20:04;13.20;99.90
10046;DHT22;5063;50.878;4.742;2023-11-19T14:22:42;13.20;99.90
10046;DHT22;5063;50.878;4.742;2023-11-19T14:25:09;13.20;99.90
10046;DHT22;5063;50.878;4.742;2023-11-19T14:27:39;13.40;99.90
10046;DHT22;5063;50.878;4.742;2023-11-19T14:30:12;13.40;99.90
10046;DHT22;5063;50.878;4.742;2023-11-19T14:32:39;13.50;99.90
10046;DHT22;5063;50.878;4.742;2023-11-19T14:35:06;13.40;99.90
10046;DHT22;5063;50.878;4.742;2023-11-19T14:37:32;13.40;99.90
10046;DHT22;5063;50.878;4.742;2023-11-19T14:39:58;13.50;99.90
10046;DHT22;5063;50.878;4.742;2023-11-19T14:42:25;13.40;99.90
10046;DHT22;5063;50.878;4.742;2023-11-19T14:44:51;13.40;99.90
10046;DHT22;5063;50.878;4.742;2023-11-19T14:47:21;13.50;99.90
10046;DHT22;5063;50.878;4.742;2023-11-19T14:49:47;13.40;99.90
10046;DHT22;5063;50.878;4.742;2023-11-19T14:52:13;13.40;99.90
10046;DHT22;5063;50.878;4.742;2023-11-19T14:54:38;13.30;99.90
10046;DHT22;5063;50.878;4.742;2023-11-19T14:57:05;13.10;99.90
10046;DHT22;5063;50.878;4.742;2023-11-19T14:59:32;13.10;99.90
10046;DHT22;5063;50.878;4.742;2023-11-19T15:01:58;13.20;99.90
10046;DHT22;5063;50.878;4.742;2023-11-19T15:04:26;13.20;99.90
10046;DHT22;5063;50.878;4.742;2023-11-19T15:06:52;13.20;99.90
10046;DHT22;5063;50.878;4.742;2023-11-19T15:09:18;13.20;99.90
10046;DHT22;5063;50.878;4.742;2023-11-19T15:11:44;13.20;99.90
10046;DHT22;5063;50.878;4.742;2023-11-19T15:14:16;13.20;99.90
10046;DHT22;5063;50.878;4.742;2023-11-19T15:16:42;13.20;99.90
10046;DHT22;5063;50.878;4.742;2023-11-19T15:19:08;13.20;99.90
10046;DHT22;5063;50.878;4.742;2023-11-19T15:21:34;13.20;99.90
10046;DHT22;5063;50.878;4.742;2023-11-19T15:24:01;13.20;99.90
10046;DHT22;5063;50.878;4.742;2023-11-19T15:26:30;13.20;99.90
10046;DHT22;5063;50.878;4.742;2023-11-19T15:28:55;13.00;99.90
10046;DHT22;5063;50.878;4.742;2023-11-19T15:31:23;13.00;99.90
10046;DHT22;5063;50.878;4.742;2023-11-19T15:33:48;12.90;99.90
10046;DHT22;5063;50.878;4.742;2023-11-19T15:36:14;12.90;99.90
10046;DHT22;5063;50.878;4.742;2023-11-19T15:38:40;12.80;99.90
10046;DHT22;5063;50.878;4.742;2023-11-19T15:41:06;12.80;99.90
10046;DHT22;5063;50.878;4.742;2023-11-19T15:43:33;12.90;99.90
10046;DHT22;5063;50.878;4.742;2023-11-19T15:45:59;12.90;99.90
10046;DHT22;5063;50.878;4.742;2023-11-19T15:48:25;12.90;99.90
10046;DHT22;5063;50.878;4.742;2023-11-19T15:50:51;13.00;99.90
10046;DHT22;5063;50.878;4.742;2023-11-19T15:53:18;13.00;99.90
10046;DHT22;5063;50.878;4.742;2023-11-19T15:55:44;13.00;99.90
10046;DHT22;5063;50.878;4.742;2023-11-19T15:58:11;13.10;99.90
10046;DHT22;5063;50.878;4.742;2023-11-19T16:00:36;13.10;99.90